createdAt,value
2018-01-08T00:00:33.186Z,6.08
2018-01-08T00:01:32.475Z,6.07
2018-01-08T00:02:32.788Z,6.07
2018-01-08T00:03:32.882Z,6.06
2018-01-08T00:04:32.004Z,6.05
2018-01-08T00:05:32.217Z,6.09
2018-01-08T00:06:32.550Z,6.07
2018-01-08T00:07:33.056Z,6.06
2018-01-08T00:08:32.958Z,6.07
2018-01-08T00:09:33.521Z,6.05
2018-01-08T00:10:32.806Z,6.05
2018-01-08T00:11:32.149Z,6.04
2018-01-08T00:12:32.438Z,6.07
2018-01-08T00:13:32.762Z,6.07
2018-01-08T00:14:33.073Z,6.08
2018-01-08T00:15:33.926Z,6.04
2018-01-08T00:16:33.029Z,6.09
2018-01-08T00:17:33.698Z,6.06
2018-01-08T00:18:33.649Z,6.08
2018-01-08T00:19:32.477Z,6.05
2018-01-08T00:20:32.721Z,6.09
2018-01-08T00:21:32.989Z,6.07
2018-01-08T00:22:33.578Z,6.04
2018-01-08T00:23:32.742Z,6.05
2018-01-08T00:24:33.156Z,6.06
2018-01-08T00:25:32.670Z,6.06
2018-01-08T00:26:33.036Z,6.06
2018-01-08T00:27:33.628Z,6.1
2018-01-08T00:28:32.764Z,6.05
2018-01-08T00:29:32.913Z,6.08
2018-01-08T00:30:32.266Z,6.04
2018-01-08T00:31:32.288Z,6.05
2018-01-08T00:32:32.252Z,6.06
2018-01-08T00:33:32.980Z,6.07
2018-01-08T00:34:32.143Z,6.09
2018-01-08T00:35:32.353Z,6.07
2018-01-08T00:36:32.179Z,6.08
2018-01-08T00:37:32.568Z,6.07
2018-01-08T00:38:32.885Z,6.08
2018-01-08T00:39:33.288Z,6.07
2018-01-08T00:40:32.759Z,6.07
2018-01-08T00:41:32.990Z,6.07
2018-01-08T00:42:33.590Z,6.09
2018-01-08T00:43:32.764Z,6.07
2018-01-08T00:44:33.157Z,6.09
2018-01-08T00:45:32.419Z,6.06
2018-01-08T00:46:32.715Z,6.08
2018-01-08T00:47:32.880Z,6.07
2018-01-08T00:50:33.656Z,6.08
2018-01-08T00:51:32.858Z,6.07
2018-01-08T00:52:33.094Z,6.08
2018-01-08T00:53:31.474Z,6.1
2018-01-08T00:54:31.595Z,6.07
2018-01-08T00:55:31.756Z,6.08
2018-01-08T00:56:31.901Z,6.05
2018-01-08T00:57:32.019Z,6.1
2018-01-08T00:58:32.099Z,6.11
2018-01-08T00:59:32.349Z,6.1
2018-01-08T01:00:31.526Z,6.09
2018-01-08T01:01:32.058Z,6.09
2018-01-08T01:02:32.462Z,6.11
2018-01-08T01:03:31.662Z,6.08
2018-01-08T01:04:31.922Z,6.07
2018-01-08T01:05:32.147Z,6.09
2018-01-08T01:06:32.303Z,6.08
2018-01-08T01:07:31.442Z,6.09
2018-01-08T01:08:31.672Z,6.1
2018-01-08T01:09:31.946Z,6.1
2018-01-08T01:10:32.144Z,6.1
2018-01-08T01:11:32.265Z,6.08
2018-01-08T01:14:32.340Z,6.11
2018-01-08T01:15:31.569Z,6.09
2018-01-08T01:16:31.738Z,6.1
2018-01-08T01:17:31.823Z,6.1
2018-01-08T01:18:32.011Z,6.09
2018-01-08T01:19:32.196Z,6.08
2018-01-08T01:20:32.471Z,6.08
2018-01-08T01:21:31.764Z,6.09
2018-01-08T01:22:31.911Z,6.11
2018-01-08T01:23:32.402Z,6.11
2018-01-08T01:24:31.515Z,6.11
2018-01-08T01:25:31.619Z,6.09
2018-01-08T01:26:31.936Z,6.12
2018-01-08T01:27:32.125Z,6.08
2018-01-08T01:28:32.143Z,6.1
2018-01-08T01:29:32.396Z,6.1
2018-01-08T01:30:31.807Z,6.11
2018-01-08T01:31:32.009Z,6.1
2018-01-08T01:32:32.123Z,6.1
2018-01-08T01:33:32.338Z,6.13
2018-01-08T01:34:31.760Z,6.11
2018-01-08T01:35:31.947Z,6.08
2018-01-08T01:36:32.157Z,6.08
2018-01-08T01:37:32.427Z,6.07
2018-01-08T01:38:31.876Z,6.1
2018-01-08T01:41:32.176Z,6.11
2018-01-08T01:42:32.447Z,6.08
2018-01-08T01:43:31.820Z,6.11
2018-01-08T01:44:33.039Z,6.1
2018-01-08T01:45:31.400Z,6.11
2018-01-08T01:46:31.783Z,6.11
2018-01-08T01:47:32.137Z,6.09
2018-01-08T01:48:31.303Z,6.09
2018-01-08T01:49:31.482Z,6.09
2018-01-08T01:50:31.756Z,6.09
2018-01-08T01:51:32.315Z,6.11
2018-01-08T01:52:31.765Z,6.11
2018-01-08T01:53:32.116Z,6.1
2018-01-08T01:54:32.516Z,6.11
2018-01-08T01:55:32.026Z,6.12
2018-01-08T01:56:31.535Z,6.1
2018-01-08T01:57:31.903Z,6.12
2018-01-08T01:58:32.162Z,6.09
2018-01-08T01:59:31.540Z,6.11
2018-01-08T02:00:32.000Z,6.1
2018-01-08T02:01:32.212Z,6.13
2018-01-08T02:02:32.071Z,6.14
2018-01-08T02:03:31.491Z,6.09
2018-01-08T02:04:31.551Z,6.09
2018-01-08T02:05:31.891Z,6.11
2018-01-08T02:06:31.456Z,6.12
2018-01-08T02:07:31.622Z,6.1
2018-01-08T02:08:31.898Z,6.12
2018-01-08T02:09:32.151Z,6.12
2018-01-08T02:10:31.373Z,6.13
2018-01-08T02:11:31.601Z,6.12
2018-01-08T02:12:31.906Z,6.12
2018-01-08T02:13:32.023Z,6.13
2018-01-08T02:14:31.864Z,6.11
2018-01-08T02:15:31.875Z,6.12
2018-01-08T02:16:32.374Z,6.12
2018-01-08T02:17:31.595Z,6.12
2018-01-08T02:18:31.773Z,6.13
2018-01-08T02:19:31.959Z,6.11
2018-01-08T02:20:32.134Z,6.13
2018-01-08T02:21:31.352Z,6.13
2018-01-08T02:22:31.515Z,6.14
2018-01-08T02:23:32.177Z,6.15
2018-01-08T02:24:31.476Z,6.11
2018-01-08T02:25:31.863Z,6.1
2018-01-08T02:26:31.203Z,6.12
2018-01-08T02:27:31.591Z,6.12
2018-01-08T02:28:31.393Z,6.11
2018-01-08T02:29:30.816Z,6.14
2018-01-08T02:30:31.040Z,6.13
2018-01-08T02:31:31.367Z,6.13
2018-01-08T02:32:31.266Z,6.12
2018-01-08T02:33:31.431Z,6.11
2018-01-08T02:34:30.797Z,6.11
2018-01-08T02:35:30.834Z,6.11
2018-01-08T02:36:31.058Z,6.12
2018-01-08T02:37:31.397Z,6.13
2018-01-08T02:38:31.819Z,6.15
2018-01-08T02:39:31.306Z,6.13
2018-01-08T02:40:31.621Z,6.12
2018-01-08T02:41:30.971Z,6.11
2018-01-08T02:42:31.095Z,6.15
2018-01-08T02:43:31.475Z,6.13
2018-01-08T02:44:57.000Z,6.13
2018-01-08T02:45:31.100Z,6.13
2018-01-08T02:46:31.354Z,6.13
2018-01-08T02:47:31.626Z,6.12
2018-01-08T02:48:31.750Z,6.12
2018-01-08T02:49:31.286Z,6.14
2018-01-08T02:50:31.452Z,6.1
2018-01-08T02:51:31.868Z,6.13
2018-01-08T02:52:31.260Z,6.13
2018-01-08T02:53:31.538Z,6.13
2018-01-08T02:54:31.931Z,6.14
2018-01-08T02:55:31.308Z,6.11
2018-01-08T02:56:31.754Z,6.12
2018-01-08T02:57:32.029Z,6.13
2018-01-08T02:58:32.425Z,6.14
2018-01-08T02:59:31.659Z,6.13
2018-01-08T03:00:31.849Z,6.12
2018-01-08T03:01:32.312Z,6.12
2018-01-08T03:02:32.512Z,6.15
2018-01-08T03:03:31.815Z,6.11
2018-01-08T03:04:32.006Z,6.15
2018-01-08T03:05:32.207Z,6.14
2018-01-08T03:06:32.493Z,6.15
2018-01-08T03:07:31.762Z,6.12
2018-01-08T03:08:31.977Z,6.14
2018-01-08T03:09:32.266Z,6.11
2018-01-08T03:10:31.648Z,6.11
2018-01-08T03:11:31.947Z,6.15
2018-01-08T03:12:32.547Z,6.11
2018-01-08T03:13:32.046Z,6.11
2018-01-08T03:14:32.330Z,6.13
2018-01-08T03:15:31.559Z,6.15
2018-01-08T03:16:31.758Z,6.13
2018-01-08T03:17:31.952Z,6.14
2018-01-08T03:18:32.363Z,6.15
2018-01-08T03:19:31.643Z,6.12
2018-01-08T03:20:31.801Z,6.11
2018-01-08T03:21:32.048Z,6.13
2018-01-08T03:22:32.244Z,6.11
2018-01-08T03:23:31.648Z,6.13
2018-01-08T03:24:31.904Z,6.12
2018-01-08T03:27:32.022Z,6.11
2018-01-08T03:28:31.293Z,6.13
2018-01-08T03:29:31.651Z,6.11
2018-01-08T03:30:31.065Z,6.14
2018-01-08T03:31:31.355Z,6.09
2018-01-08T03:32:31.514Z,6.09
2018-01-08T03:33:31.147Z,6.1
2018-01-08T03:34:31.558Z,6.12
2018-01-08T03:35:31.108Z,6.11
2018-01-08T03:36:31.605Z,6.13
2018-01-08T03:37:30.721Z,6.14
2018-01-08T03:38:30.919Z,6.12
2018-01-08T03:39:31.333Z,6.11
2018-01-08T03:40:31.592Z,6.12
2018-01-08T03:41:31.706Z,6.13
2018-01-08T03:42:30.931Z,6.14
2018-01-08T03:43:31.126Z,6.12
2018-01-08T03:44:31.505Z,6.14
2018-01-08T03:45:31.723Z,6.11
2018-01-08T03:46:31.009Z,6.1
2018-01-08T03:47:31.257Z,6.11
2018-01-08T03:48:31.587Z,6.13
2018-01-08T03:49:31.818Z,6.12
2018-01-08T03:50:31.137Z,6.13
2018-01-08T03:51:31.463Z,6.11
2018-01-08T03:52:31.703Z,6.1
2018-01-08T03:53:31.683Z,6.12
2018-01-08T03:54:31.791Z,6.11
2018-01-08T03:55:31.113Z,6.15
2018-01-08T03:56:31.336Z,6.12
2018-01-08T03:57:31.547Z,6.11
2018-01-08T03:58:31.728Z,6.09
2018-01-08T03:59:30.878Z,6.1
2018-01-08T04:00:31.163Z,6.13
2018-01-08T04:01:31.214Z,6.1
2018-01-08T04:02:31.409Z,6.11
2018-01-08T04:03:31.751Z,6.14
2018-01-08T04:04:30.902Z,6.14
2018-01-08T04:05:31.175Z,6.14
2018-01-08T04:06:31.543Z,6.1
2018-01-08T04:07:31.677Z,6.14
2018-01-08T04:08:30.813Z,6.1
2018-01-08T04:09:30.914Z,6.14
2018-01-08T04:10:31.098Z,6.12
2018-01-08T04:11:31.401Z,6.1
2018-01-08T04:12:31.597Z,6.13
2018-01-08T04:13:30.788Z,6.11
2018-01-08T04:14:30.933Z,6.14
2018-01-08T04:15:31.106Z,6.13
2018-01-08T04:16:31.364Z,6.12
2018-01-08T04:17:31.780Z,6.11
2018-01-08T04:18:31.276Z,6.11
2018-01-08T04:19:31.519Z,6.13
2018-01-08T04:20:30.627Z,6.13
2018-01-08T04:21:31.724Z,6.13
2018-01-08T04:22:30.987Z,6.14
2018-01-08T04:23:31.339Z,6.13
2018-01-08T04:24:31.675Z,6.12
2018-01-08T04:25:30.955Z,6.11
2018-01-08T04:26:31.167Z,6.15
2018-01-08T04:27:31.369Z,6.13
2018-01-08T04:28:30.706Z,6.13
2018-01-08T04:29:30.998Z,6.12
2018-01-08T04:30:31.223Z,6.16
2018-01-08T04:31:31.471Z,6.15
2018-01-08T04:32:31.934Z,6.16
2018-01-08T04:33:31.129Z,6.13
2018-01-08T04:34:31.186Z,6.15
2018-01-08T04:35:31.270Z,6.16
2018-01-08T04:36:31.595Z,6.13
2018-01-08T04:37:31.804Z,6.12
2018-01-08T04:38:31.218Z,6.13
2018-01-08T04:39:31.746Z,6.16
2018-01-08T04:40:30.942Z,6.12
2018-01-08T04:41:31.186Z,6.12
2018-01-08T04:42:31.394Z,6.12
2018-01-08T04:43:31.483Z,6.13
2018-01-08T04:44:31.801Z,6.13
2018-01-08T04:45:31.110Z,6.12
2018-01-08T04:46:31.333Z,6.15
2018-01-08T04:47:31.547Z,6.11
2018-01-08T04:48:31.859Z,6.13
2018-01-08T04:49:31.305Z,6.15
2018-01-08T04:50:31.349Z,6.14
2018-01-08T04:51:31.471Z,6.12
2018-01-08T04:52:31.659Z,6.12
2018-01-08T04:53:31.866Z,6.15
2018-01-08T04:54:31.200Z,6.16
2018-01-08T04:55:31.333Z,6.15
2018-01-08T04:56:31.519Z,6.14
2018-01-08T04:57:31.625Z,6.14
2018-01-08T04:58:31.830Z,6.15
2018-01-08T04:59:31.114Z,6.16
2018-01-08T05:00:31.292Z,6.13
2018-01-08T05:01:31.303Z,6.15
2018-01-08T05:02:31.537Z,6.14
2018-01-08T05:03:31.787Z,6.16
2018-01-08T05:04:31.973Z,6.18
2018-01-08T05:05:31.122Z,6.13
2018-01-08T05:06:31.357Z,6.14
2018-01-08T05:07:31.557Z,6.13
2018-01-08T05:08:31.624Z,6.14
2018-01-08T05:09:31.813Z,6.17
2018-01-08T05:10:31.283Z,6.15
2018-01-08T05:11:31.710Z,6.14
2018-01-08T05:12:31.852Z,6.18
2018-01-08T05:13:32.146Z,6.15
2018-01-08T05:14:31.216Z,6.16
2018-01-08T05:15:31.440Z,6.18
2018-01-08T05:16:31.697Z,6.17
2018-01-08T05:17:32.042Z,6.16
2018-01-08T05:18:31.243Z,6.17
2018-01-08T05:19:31.318Z,6.17
2018-01-08T05:20:31.548Z,6.16
2018-01-08T05:21:31.955Z,6.13
2018-01-08T05:22:31.104Z,6.14
2018-01-08T05:23:31.338Z,6.17
2018-01-08T05:24:31.670Z,6.18
2018-01-08T05:25:32.010Z,6.17
2018-01-08T05:26:31.867Z,6.16
2018-01-08T05:27:31.093Z,6.15
2018-01-08T05:28:31.297Z,6.16
2018-01-08T05:29:31.841Z,6.19
2018-01-08T05:30:32.171Z,6.15
2018-01-08T05:31:31.878Z,6.18
2018-01-08T05:32:32.243Z,6.17
2018-01-08T05:33:32.106Z,6.16
2018-01-08T05:34:31.997Z,6.16
2018-01-08T05:35:32.321Z,6.17
2018-01-08T05:36:32.191Z,6.18
2018-01-08T05:37:32.353Z,6.18
2018-01-08T05:38:32.272Z,6.2
2018-01-08T05:39:32.759Z,6.2
2018-01-08T05:40:32.131Z,6.18
2018-01-08T05:41:32.466Z,6.2
2018-01-08T05:42:31.922Z,6.2
2018-01-08T05:43:32.042Z,6.17
2018-01-08T05:44:32.260Z,6.19
2018-01-08T05:45:32.057Z,6.17
2018-01-08T05:46:31.967Z,6.2
2018-01-08T05:47:32.105Z,6.18
2018-01-08T05:48:32.224Z,6.21
2018-01-08T05:49:32.576Z,6.18
2018-01-08T05:50:32.346Z,6.18
2018-01-08T05:51:32.342Z,6.21
2018-01-08T05:52:32.508Z,6.2
2018-01-08T05:53:31.976Z,6.21
2018-01-08T05:54:32.437Z,6.22
2018-01-08T05:55:31.929Z,6.19
2018-01-08T05:56:32.111Z,6.2
2018-01-08T05:57:32.323Z,6.21
2018-01-08T05:58:31.672Z,6.22
2018-01-08T05:59:31.977Z,6.19
2018-01-08T06:00:31.255Z,6.19
2018-01-08T06:01:31.644Z,6.21
2018-01-08T06:02:30.964Z,6.19
2018-01-08T06:03:31.190Z,6.2
2018-01-08T06:04:31.531Z,6.22
2018-01-08T06:05:31.688Z,6.22
2018-01-08T06:06:30.957Z,6.19
2018-01-08T06:07:31.177Z,6.21
2018-01-08T06:08:31.580Z,6.21
2018-01-08T06:09:30.933Z,6.24
2018-01-08T06:10:31.058Z,6.22
2018-01-08T06:11:31.340Z,6.21
2018-01-08T06:12:31.675Z,6.23
2018-01-08T06:13:30.874Z,6.24
2018-01-08T06:14:31.146Z,6.2
2018-01-08T06:15:31.784Z,6.2
2018-01-08T06:16:31.082Z,6.2
2018-01-08T06:17:31.297Z,6.22
2018-01-08T06:18:31.611Z,6.24
2018-01-08T06:19:30.954Z,6.21
2018-01-08T06:20:31.285Z,6.24
2018-01-08T06:21:31.627Z,6.21
2018-01-08T06:22:31.892Z,6.23
2018-01-08T06:23:31.272Z,6.23
2018-01-08T06:24:31.537Z,6.21
2018-01-08T06:25:31.824Z,6.22
2018-01-08T06:26:31.628Z,6.24
2018-01-08T06:27:30.970Z,6.21
2018-01-08T06:28:31.402Z,6.25
2018-01-08T06:29:31.748Z,6.25
2018-01-08T06:30:31.120Z,6.23
2018-01-08T06:31:31.586Z,6.22
2018-01-08T06:32:31.657Z,6.22
2018-01-08T06:33:31.675Z,6.21
2018-01-08T06:34:31.992Z,6.23
2018-01-08T06:35:31.335Z,6.23
2018-01-08T06:36:31.479Z,6.21
2018-01-08T06:37:31.963Z,6.23
2018-01-08T06:38:31.418Z,6.22
2018-01-08T06:39:31.812Z,6.23
2018-01-08T06:40:32.022Z,6.24
2018-01-08T06:41:31.426Z,6.23
2018-01-08T06:42:31.721Z,6.23
2018-01-08T06:43:31.007Z,6.23
2018-01-08T06:44:31.258Z,6.22
2018-01-08T06:45:31.518Z,6.22
2018-01-08T06:46:31.887Z,6.24
2018-01-08T06:47:31.528Z,6.22
2018-01-08T06:48:31.705Z,6.21
2018-01-08T06:49:31.775Z,6.25
2018-01-08T06:50:31.991Z,6.24
2018-01-08T06:51:31.286Z,6.24
2018-01-08T06:52:31.702Z,6.22
2018-01-08T06:53:32.010Z,6.23
2018-01-08T06:54:31.363Z,6.22
2018-01-08T06:55:31.661Z,6.23
2018-01-08T06:56:32.017Z,6.25
2018-01-08T06:57:31.525Z,6.26
2018-01-08T06:58:31.798Z,6.25
2018-01-08T06:59:31.133Z,6.23
2018-01-08T07:00:31.455Z,6.25
2018-01-08T07:01:31.771Z,6.23
2018-01-08T07:02:31.981Z,6.24
2018-01-08T07:03:32.178Z,6.22
2018-01-08T07:04:31.340Z,6.25
2018-01-08T07:05:31.510Z,6.24
2018-01-08T07:06:31.678Z,6.22
2018-01-08T07:07:32.004Z,6.24
2018-01-08T07:08:31.647Z,6.26
2018-01-08T07:09:32.021Z,6.26
2018-01-08T07:10:32.371Z,6.22
2018-01-08T07:11:31.641Z,6.25
2018-01-08T07:12:31.846Z,6.25
2018-01-08T07:13:32.133Z,6.26
2018-01-08T07:14:31.613Z,6.24
2018-01-08T07:15:31.989Z,6.22
2018-01-08T07:16:32.299Z,6.24
2018-01-08T07:17:32.147Z,6.26
2018-01-08T07:18:31.972Z,6.24
2018-01-08T07:19:32.008Z,6.23
2018-01-08T07:20:32.334Z,6.22
2018-01-08T07:21:32.404Z,6.23
2018-01-08T07:22:32.206Z,6.25
2018-01-08T07:23:31.624Z,6.25
2018-01-08T07:24:31.889Z,6.21
2018-01-08T07:25:32.254Z,6.25
2018-01-08T07:26:31.522Z,6.22
2018-01-08T07:27:31.791Z,6.22
2018-01-08T07:28:32.031Z,6.24
2018-01-08T07:29:32.141Z,6.24
2018-01-08T07:30:32.439Z,6.25
2018-01-08T07:31:31.768Z,6.25
2018-01-08T07:32:32.093Z,6.24
2018-01-08T07:33:32.005Z,6.26
2018-01-08T07:34:32.263Z,6.25
2018-01-08T07:35:31.459Z,6.23
2018-01-08T07:36:31.663Z,6.22
2018-01-08T07:37:31.990Z,6.23
2018-01-08T07:38:32.185Z,6.22
2018-01-08T07:39:32.112Z,6.24
2018-01-08T07:40:32.405Z,6.24
2018-01-08T07:41:31.709Z,6.24
2018-01-08T07:42:31.915Z,6.24
2018-01-08T07:43:32.134Z,6.22
2018-01-08T07:44:31.435Z,6.23
2018-01-08T07:45:31.670Z,6.24
2018-01-08T07:46:31.856Z,6.25
2018-01-08T07:47:32.213Z,6.23
2018-01-08T07:48:31.669Z,6.24
2018-01-08T07:49:32.121Z,6.25
2018-01-08T07:50:31.594Z,6.26
2018-01-08T07:51:32.134Z,6.22
2018-01-08T07:52:31.973Z,6.24
2018-01-08T07:53:32.231Z,6.22
2018-01-08T07:54:31.829Z,6.23
2018-01-08T07:55:32.047Z,6.23
2018-01-08T07:56:31.415Z,6.25
2018-01-08T07:57:31.639Z,6.21
2018-01-08T07:58:31.734Z,6.24
2018-01-08T07:59:31.972Z,6.19
2018-01-08T08:00:32.351Z,6.21
2018-01-08T08:01:31.653Z,6.25
2018-01-08T08:02:31.107Z,6.21
2018-01-08T08:03:31.542Z,6.24
2018-01-08T08:04:30.743Z,6.21
2018-01-08T08:05:30.959Z,6.23
2018-01-08T08:06:31.174Z,6.23
2018-01-08T08:07:31.373Z,6.24
2018-01-08T08:08:31.573Z,6.21
2018-01-08T08:09:30.748Z,6.21
2018-01-08T08:10:30.860Z,6.25
2018-01-08T08:11:31.081Z,6.22
2018-01-08T08:12:31.595Z,6.24
2018-01-08T08:13:30.833Z,6.21
2018-01-08T08:14:31.089Z,6.2
2018-01-08T08:15:31.378Z,6.22
2018-01-08T08:16:31.518Z,6.24
2018-01-08T08:17:30.858Z,6.2
2018-01-08T08:18:31.217Z,6.2
2018-01-08T08:19:31.571Z,6.22
2018-01-08T08:20:30.819Z,6.22
2018-01-08T08:21:31.076Z,6.22
2018-01-08T08:22:31.458Z,6.21
2018-01-08T08:23:30.919Z,6.22
2018-01-08T08:24:31.019Z,6.21
2018-01-08T08:25:31.335Z,6.22
2018-01-08T08:26:31.828Z,6.23
2018-01-08T08:27:31.358Z,6.22
2018-01-08T08:28:30.796Z,6.21
2018-01-08T08:29:31.089Z,6.23
2018-01-08T08:30:31.212Z,6.22
2018-01-08T08:31:31.329Z,6.22
2018-01-08T08:32:31.592Z,6.21
2018-01-08T08:33:31.738Z,6.22
2018-01-08T08:34:32.087Z,6.21
2018-01-08T08:35:32.403Z,6.21
2018-01-08T08:36:31.648Z,6.2
2018-01-08T08:37:31.710Z,6.2
2018-01-08T08:38:31.913Z,6.21
2018-01-08T08:39:32.432Z,6.2
2018-01-08T08:40:31.697Z,6.2
2018-01-08T08:41:31.932Z,6.2
2018-01-08T08:42:32.065Z,6.21
2018-01-08T08:43:32.174Z,6.23
2018-01-08T08:44:32.227Z,6.22
2018-01-08T08:45:32.236Z,6.2
2018-01-08T08:46:32.350Z,6.21
2018-01-08T08:47:31.871Z,6.19
2018-01-08T08:48:32.125Z,6.22
2018-01-08T08:49:31.964Z,6.2
2018-01-08T08:50:32.268Z,6.21
2018-01-08T08:51:32.570Z,6.19
2018-01-08T08:52:32.064Z,6.2
2018-01-08T08:53:32.334Z,6.21
2018-01-08T08:54:31.920Z,6.21
2018-01-08T08:55:32.145Z,6.21
2018-01-08T08:56:31.950Z,6.2
2018-01-08T08:57:32.316Z,6.21
2018-01-08T08:58:31.846Z,6.23
2018-01-08T08:59:32.112Z,6.2
2018-01-08T09:00:32.353Z,6.19
2018-01-08T09:01:32.069Z,6.21
2018-01-08T09:02:32.426Z,6.22
2018-01-08T09:03:31.767Z,6.2
2018-01-08T09:04:32.120Z,6.22
2018-01-08T09:05:32.203Z,6.2
2018-01-08T09:06:31.686Z,6.23
2018-01-08T09:07:31.895Z,6.2
2018-01-08T09:08:31.932Z,6.2
2018-01-08T09:09:32.074Z,6.21
2018-01-08T09:10:32.185Z,6.21
2018-01-08T09:11:31.424Z,6.21
2018-01-08T09:12:31.713Z,6.2
2018-01-08T09:13:32.046Z,6.16
2018-01-08T09:14:32.543Z,6.18
2018-01-08T09:15:31.877Z,6.17
2018-01-08T09:16:32.140Z,6.18
2018-01-08T09:17:32.820Z,6.2
2018-01-08T09:18:31.699Z,6.2
2018-01-08T09:19:31.996Z,6.18
2018-01-08T09:20:32.416Z,6.16
2018-01-08T09:21:32.286Z,6.18
2018-01-08T09:22:31.598Z,6.16
2018-01-08T09:23:31.697Z,6.16
2018-01-08T09:24:31.884Z,6.19
2018-01-08T09:25:32.007Z,6.15
2018-01-08T09:26:32.299Z,6.18
2018-01-08T09:27:31.877Z,6.19
2018-01-08T09:28:32.250Z,6.19
2018-01-08T09:29:31.778Z,6.19
2018-01-08T09:30:32.029Z,6.2
2018-01-08T09:31:32.367Z,6.17
2018-01-08T09:32:31.760Z,6.17
2018-01-08T09:33:32.180Z,6.19
2018-01-08T09:34:31.325Z,6.17
2018-01-08T09:35:31.545Z,6.18
2018-01-08T09:36:31.847Z,6.2
2018-01-08T09:37:31.176Z,6.18
2018-01-08T09:38:31.531Z,6.19
2018-01-08T09:39:31.872Z,6.18
2018-01-08T09:40:31.162Z,6.19
2018-01-08T09:41:31.575Z,6.19
2018-01-08T09:42:32.196Z,6.19
2018-01-08T09:43:31.588Z,6.17
2018-01-08T09:44:32.123Z,6.19
2018-01-08T09:45:31.518Z,6.21
2018-01-08T09:46:31.857Z,6.17
2018-01-08T09:47:31.173Z,6.19
2018-01-08T09:48:31.462Z,6.18
2018-01-08T09:49:31.951Z,6.2
2018-01-08T09:50:31.038Z,6.2
2018-01-08T09:51:31.454Z,6.2
2018-01-08T09:52:31.877Z,6.19
2018-01-08T09:53:31.276Z,6.19
2018-01-08T09:54:31.500Z,6.2
2018-01-08T09:55:31.947Z,6.18
2018-01-08T09:56:31.245Z,6.17
2018-01-08T09:57:31.530Z,6.18
2018-01-08T09:58:31.894Z,6.19
2018-01-08T09:59:31.460Z,6.17
2018-01-08T10:00:31.786Z,6.17
2018-01-08T10:01:32.489Z,6.17
2018-01-08T10:02:31.822Z,6.18
2018-01-08T10:03:31.270Z,6.17
2018-01-08T10:04:31.771Z,6.17
2018-01-08T10:05:31.194Z,6.18
2018-01-08T10:06:32.080Z,6.17
2018-01-08T10:07:30.990Z,6.18
2018-01-08T10:08:31.195Z,6.19
2018-01-08T10:09:31.427Z,6.19
2018-01-08T10:10:30.894Z,6.16
2018-01-08T10:11:31.315Z,6.17
2018-01-08T10:12:31.727Z,6.19
2018-01-08T10:13:31.161Z,6.19
2018-01-08T10:14:31.697Z,6.18
2018-01-08T10:15:31.032Z,6.16
2018-01-08T10:16:31.375Z,6.17
2018-01-08T10:17:32.028Z,6.18
2018-01-08T10:18:31.422Z,6.19
2018-01-08T10:19:30.817Z,6.19
2018-01-08T10:20:31.140Z,6.18
2018-01-08T10:21:30.701Z,6.19
2018-01-08T10:22:30.959Z,6.21
2018-01-08T10:23:31.334Z,6.19
2018-01-08T10:24:31.764Z,6.2
2018-01-08T10:25:31.058Z,6.2
2018-01-08T10:26:31.410Z,6.17
2018-01-08T10:27:30.764Z,6.16
2018-01-08T10:28:30.878Z,6.17
2018-01-08T10:29:56.608Z,6.17
2018-01-08T10:30:30.972Z,6.17
2018-01-08T10:31:31.280Z,6.17
2018-01-08T10:32:30.809Z,6.17
2018-01-08T10:33:31.086Z,6.19
2018-01-08T10:34:31.243Z,6.19
2018-01-08T10:35:31.585Z,6.19
2018-01-08T10:36:31.958Z,6.17
2018-01-08T10:37:32.331Z,6.16
2018-01-08T10:38:31.565Z,6.13
2018-01-08T10:39:31.815Z,6.19
2018-01-08T10:40:32.262Z,6.17
2018-01-08T10:41:31.792Z,6.2
2018-01-08T10:42:32.246Z,6.17
2018-01-08T10:43:31.986Z,6.17
2018-01-08T10:44:32.275Z,6.2
2018-01-08T10:45:31.549Z,6.19
2018-01-08T10:46:31.823Z,6.18
2018-01-08T10:47:32.033Z,6.15
2018-01-08T10:48:32.582Z,6.18
2018-01-08T10:49:31.812Z,6.2
2018-01-08T10:50:32.221Z,6.18
2018-01-08T10:51:31.614Z,6.19
2018-01-08T10:52:31.967Z,6.19
2018-01-08T10:53:32.652Z,6.18
2018-01-08T10:54:32.318Z,6.21
2018-01-08T10:55:31.837Z,6.23
2018-01-08T10:56:32.302Z,6.22
2018-01-08T10:57:31.900Z,6.16
2018-01-08T10:58:32.296Z,6.18
2018-01-08T10:59:31.780Z,6.18
2018-01-08T11:00:32.272Z,6.2
2018-01-08T11:01:31.660Z,6.21
2018-01-08T11:02:31.993Z,6.2
2018-01-08T11:03:32.516Z,6.2
2018-01-08T11:04:31.858Z,6.2
2018-01-08T11:05:32.770Z,6.2
2018-01-08T11:06:32.258Z,6.2
2018-01-08T11:07:32.675Z,6.19
2018-01-08T11:08:32.516Z,6.18
2018-01-08T11:09:32.059Z,6.2
2018-01-08T11:10:32.464Z,6.2
2018-01-08T11:11:31.851Z,6.19
2018-01-08T11:12:32.222Z,6.18
2018-01-08T11:13:32.015Z,6.2
2018-01-08T11:14:32.405Z,6.18
2018-01-08T11:15:31.872Z,6.19
2018-01-08T11:16:32.337Z,6.18
2018-01-08T11:17:31.695Z,6.17
2018-01-08T11:18:32.319Z,6.2
2018-01-08T11:19:31.657Z,6.2
2018-01-08T11:20:31.891Z,6.22
2018-01-08T11:21:32.343Z,6.2
2018-01-08T11:22:32.362Z,6.2
2018-01-08T11:23:32.035Z,6.22
2018-01-08T11:24:32.715Z,6.19
2018-01-08T11:25:32.174Z,6.23
2018-01-08T11:26:31.922Z,6.18
2018-01-08T11:27:32.308Z,6.19
2018-01-08T11:28:31.800Z,6.23
2018-01-08T11:29:32.261Z,6.22
2018-01-08T11:30:32.592Z,6.22
2018-01-08T11:31:31.860Z,6.22
2018-01-08T11:32:32.231Z,6.2
2018-01-08T11:33:32.686Z,6.21
2018-01-08T11:34:32.323Z,6.21
2018-01-08T11:35:31.677Z,6.2
2018-01-08T11:36:32.271Z,6.2
2018-01-08T11:37:32.176Z,6.19
2018-01-08T11:38:31.443Z,6.23
2018-01-08T11:39:32.857Z,6.22
2018-01-08T11:40:31.076Z,6.21
2018-01-08T11:41:31.322Z,6.21
2018-01-08T11:42:31.505Z,6.21
2018-01-08T11:43:31.775Z,6.23
2018-01-08T11:44:31.093Z,6.19
2018-01-08T11:45:31.374Z,6.17
2018-01-08T11:46:31.613Z,6.18
2018-01-08T11:47:31.971Z,6.19
2018-01-08T11:48:31.485Z,6.17
2018-01-08T11:49:31.854Z,6.17
2018-01-08T11:50:31.135Z,6.18
2018-01-08T11:51:31.370Z,6.19
2018-01-08T11:52:31.523Z,6.2
2018-01-08T11:53:31.769Z,6.21
2018-01-08T11:54:32.108Z,6.18
2018-01-08T11:55:31.357Z,6.17
2018-01-08T11:56:31.572Z,6.15
2018-01-08T11:57:31.839Z,6.18
2018-01-08T11:58:31.052Z,6.2
2018-01-08T11:59:31.572Z,6.2
2018-01-08T12:00:31.988Z,6.17
2018-01-08T12:01:31.301Z,6.16
2018-01-08T12:02:31.568Z,6.15
2018-01-08T12:03:31.779Z,6.14
2018-01-08T12:04:31.972Z,6.17
2018-01-08T12:05:31.169Z,6.18
2018-01-08T12:06:31.400Z,6.16
2018-01-08T12:07:31.909Z,6.16
2018-01-08T12:08:31.129Z,6.13
2018-01-08T12:09:31.452Z,6.14
2018-01-08T12:10:31.254Z,6.14
2018-01-08T12:11:31.675Z,6.12
2018-01-08T12:12:31.106Z,6.14
2018-01-08T12:13:31.365Z,6.13
2018-01-08T12:14:31.781Z,6.14
2018-01-08T12:15:31.218Z,6.15
2018-01-08T12:16:31.580Z,6.16
2018-01-08T12:17:30.990Z,6.16
2018-01-08T12:18:31.410Z,6.15
2018-01-08T12:19:32.299Z,6.18
2018-01-08T12:20:31.923Z,6.14
2018-01-08T12:21:31.521Z,6.14
2018-01-08T12:22:30.924Z,6.14
2018-01-08T12:23:31.332Z,6.16
2018-01-08T12:24:31.781Z,6.18
2018-01-08T12:25:31.076Z,6.17
2018-01-08T12:26:31.724Z,6.17
2018-01-08T12:27:31.141Z,6.15
2018-01-08T12:28:31.401Z,6.16
2018-01-08T12:29:31.696Z,6.15
2018-01-08T12:30:31.290Z,6.17
2018-01-08T12:31:31.780Z,6.16
2018-01-08T12:32:31.029Z,6.17
2018-01-08T12:33:31.232Z,6.19
2018-01-08T12:34:31.552Z,6.18
2018-01-08T12:35:30.942Z,6.16
2018-01-08T12:36:31.420Z,6.14
2018-01-08T12:37:31.824Z,6.13
2018-01-08T12:38:31.329Z,6.11
2018-01-08T12:39:31.604Z,6.12
2018-01-08T12:40:31.790Z,6.11
2018-01-08T12:41:31.902Z,6.13
2018-01-08T12:42:32.270Z,6.16
2018-01-08T12:43:31.568Z,6.13
2018-01-08T12:44:31.942Z,6.15
2018-01-08T12:45:32.263Z,6.15
2018-01-08T12:46:31.431Z,6.17
2018-01-08T12:47:31.677Z,6.09
2018-01-08T12:48:32.117Z,6.12
2018-01-08T12:49:31.419Z,6.1
2018-01-08T12:50:31.645Z,6.14
2018-01-08T12:51:31.862Z,6.12
2018-01-08T12:52:32.103Z,6.12
2018-01-08T12:53:31.513Z,6.11
2018-01-08T12:54:31.799Z,6.11
2018-01-08T12:55:31.999Z,6.14
2018-01-08T12:56:32.220Z,6.12
2018-01-08T12:57:31.730Z,6.11
2018-01-08T12:58:32.431Z,6.13
2018-01-08T12:59:31.882Z,6.12
2018-01-08T13:00:32.291Z,6.11
2018-01-08T13:01:31.833Z,6.13
2018-01-08T13:02:32.059Z,6.14
2018-01-08T13:03:31.537Z,6.14
2018-01-08T13:04:31.961Z,6.13
2018-01-08T13:05:32.252Z,6.12
2018-01-08T13:06:31.603Z,6.13
2018-01-08T13:07:32.121Z,6.11
2018-01-08T13:08:31.497Z,6.12
2018-01-08T13:09:32.175Z,6.14
2018-01-08T13:10:31.644Z,6.12
2018-01-08T13:11:32.025Z,6.13
2018-01-08T13:12:32.459Z,6.12
2018-01-08T13:13:31.939Z,6.12
2018-01-08T13:14:32.431Z,6.11
2018-01-08T13:15:31.970Z,6.13
2018-01-08T13:16:32.299Z,6.1
2018-01-08T13:17:31.681Z,6.12
2018-01-08T13:18:32.154Z,6.1
2018-01-08T13:19:31.518Z,6.11
2018-01-08T13:20:31.800Z,6.14
2018-01-08T13:21:32.069Z,6.13
2018-01-08T13:22:31.482Z,6.14
2018-01-08T13:23:31.638Z,6.15
2018-01-08T13:24:31.888Z,6.14
2018-01-08T13:25:32.176Z,6.14
2018-01-08T13:26:31.753Z,6.15
2018-01-08T13:27:32.211Z,6.15
2018-01-08T13:28:31.498Z,6.15
2018-01-08T13:29:31.619Z,6.15